Time;durP1;ratioP1;P1;durP2;ratioP2;P2;SDS_P1;SDS_P2;PMS_P1;PMS_P2;Temp;Humidity;BMP_temperature;BMP_pressure;BME280_temperature;BME280_humidity;BME280_pressure;Samples;Min_cycle;Max_cycle;Signal;HPM_P1;HPM_P2
2023/01/19 00:01:08;;;;;;;30.75;6.10;;;;;;;11.74;84.96;95709.56;5050494;28;20053;-64
2023/01/19 00:03:36;;;;;;;44.63;5.57;;;;;;;11.73;84.90;95710.50;5051097;28;20101;-65
2023/01/19 00:06:05;;;;;;;40.15;5.55;;;;;;;11.67;85.34;95708.22;5051143;28;20048;-67
2023/01/19 00:08:33;;;;;;;25.20;5.53;;;;;;;11.68;84.89;95709.09;5051070;28;20053;-64
2023/01/19 00:11:01;;;;;;;36.00;5.88;;;;;;;11.68;84.94;95709.91;5051075;28;20076;-67
2023/01/19 00:13:29;;;;;;;42.90;6.28;;;;;;;11.66;84.72;95721.41;5050963;28;20080;-65
2023/01/19 00:15:58;;;;;;;37.17;5.20;;;;;;;11.63;84.50;95718.03;5050913;28;20085;-65
2023/01/19 00:18:26;;;;;;;36.65;6.43;;;;;;;11.62;85.16;95718.97;5050982;28;20056;-67
2023/01/19 00:20:54;;;;;;;38.35;6.38;;;;;;;11.62;85.14;95726.81;5050894;28;20509;-64
2023/01/19 00:23:22;;;;;;;39.65;5.63;;;;;;;11.57;85.24;95721.00;5051081;28;20073;-65
2023/01/19 00:25:52;;;;;;;41.30;6.22;;;;;;;11.59;85.02;95718.31;5050708;28;20084;-65
2023/01/19 00:28:20;;;;;;;37.72;6.18;;;;;;;11.59;84.89;95734.00;5050785;28;20041;-68
2023/01/19 00:30:47;;;;;;;35.38;6.20;;;;;;;11.55;84.91;95728.09;5050534;28;20049;-64
2023/01/19 00:33:16;;;;;;;26.70;5.80;;;;;;;11.56;84.79;95724.53;5050882;27;20057;-63
2023/01/19 00:35:46;;;;;;;37.95;5.50;;;;;;;11.53;85.01;95732.56;5050659;28;20052;-65
2023/01/19 00:38:13;;;;;;;49.17;7.03;;;;;;;11.49;85.25;95729.28;5050585;28;20051;-66
2023/01/19 00:40:42;;;;;;;33.92;6.32;;;;;;;11.46;85.01;95729.44;5050808;28;20495;-63
2023/01/19 00:43:09;;;;;;;36.67;6.70;;;;;;;11.43;85.26;95729.59;5050698;28;20045;-67
2023/01/19 00:45:36;;;;;;;37.13;5.53;;;;;;;11.40;85.57;95721.91;5050220;28;20049;-68
2023/01/19 00:48:04;;;;;;;31.65;5.68;;;;;;;11.41;85.41;95728.00;5050430;28;20049;-66
2023/01/19 00:50:33;;;;;;;41.75;5.63;;;;;;;11.43;84.80;95715.66;5050286;28;20053;-63
2023/01/19 00:53:01;;;;;;;45.20;7.32;;;;;;;11.43;84.82;95723.50;5050324;28;20127;-65
2023/01/19 00:55:29;;;;;;;33.70;6.28;;;;;;;11.38;84.74;95723.78;5050397;28;20109;-65
2023/01/19 00:57:57;;;;;;;41.08;6.38;;;;;;;11.42;84.61;95732.31;5050358;28;20105;-66
2023/01/19 01:00:25;;;;;;;36.70;6.25;;;;;;;11.40;84.36;95732.38;5050339;28;20053;-67
2023/01/19 01:02:54;;;;;;;36.95;7.10;;;;;;;11.40;84.19;95735.00;5050463;28;20443;-67
2023/01/19 01:05:25;;;;;;;35.35;5.70;;;;;;;11.42;83.84;95745.41;5050433;28;20048;-66
2023/01/19 01:07:54;;;;;;;38.13;6.38;;;;;;;11.42;83.96;95734.91;5050117;28;20052;-65
2023/01/19 01:10:25;;;;;;;37.92;7.30;;;;;;;11.47;83.53;95728.50;5050042;28;20049;-66
2023/01/19 01:12:53;;;;;;;34.70;5.38;;;;;;;11.47;83.27;95730.28;5049129;28;20088;-67
2023/01/19 01:15:21;;;;;;;42.35;7.15;;;;;;;11.40;83.47;95732.38;5050126;28;20056;-65
2023/01/19 01:17:51;;;;;;;39.45;6.78;;;;;;;11.42;83.65;95735.78;5049987;28;20502;-64
2023/01/19 01:20:22;;;;;;;37.15;6.03;;;;;;;11.50;82.92;95730.97;5049986;28;20056;-63
2023/01/19 01:22:50;;;;;;;;;;;;;;;11.53;82.54;95727.31;5050363;28;20060;-63
2023/01/19 01:25:22;;;;;;;26.95;5.45;;;;;;;11.51;82.50;95723.97;5049822;28;20015;-66
2023/01/19 01:27:49;;;;;;;39.67;6.18;;;;;;;11.49;82.42;95721.41;5049855;28;20124;-66
2023/01/19 01:30:16;;;;;;;28.30;5.70;;;;;;;11.50;82.33;95719.66;5050027;28;20085;-67
2023/01/19 01:32:44;;;;;;;42.20;6.40;;;;;;;11.50;82.17;95728.34;5049734;28;20128;-64
2023/01/19 01:35:13;;;;;;;39.25;6.10;;;;;;;11.53;81.66;95732.56;5049842;28;20091;-65
2023/01/19 01:37:41;;;;;;;34.72;6.45;;;;;;;11.51;81.61;95718.72;5049863;28;20048;-68
2023/01/19 01:40:12;;;;;;;44.90;6.45;;;;;;;11.50;81.18;95707.38;5049823;28;20045;-65
2023/01/19 01:42:41;;;;;;;;;;;;;;;11.47;81.44;95711.97;5050185;28;20491;-67
2023/01/19 01:45:32;;;;;;;40.83;6.75;;;;;;;11.46;81.04;95718.97;5049664;28;19920;-66
2023/01/19 01:48:02;;;;;;;;;;;;;;;11.41;81.14;95714.91;5050077;28;20053;-63
2023/01/19 01:50:33;;;;;;;44.23;6.83;;;;;;;11.38;81.19;95710.69;5049484;28;19924;-63
2023/01/19 01:53:05;;;;;;;63.50;11.43;;;;;;;11.29;80.95;95709.41;5049559;28;20289;-64
2023/01/19 01:55:34;;;;;;;40.20;6.63;;;;;;;11.33;80.88;95713.56;5049654;28;20049;-63
2023/01/19 01:58:06;;;;;;;38.15;7.10;;;;;;;11.37;80.20;95724.69;5049691;28;20405;-65
2023/01/19 02:02:49;;;;;;;35.00;6.40;;;;;;;11.35;80.47;95713.47;5049555;28;20490;-66
2023/01/19 02:03:21;;;;;;;46.97;6.78;;;;;;;11.33;80.51;95718.81;5049537;28;20105;-64
2023/01/19 02:05:49;;;;;;;37.65;6.70;;;;;;;11.34;80.62;95717.88;5049572;28;20052;-67
2023/01/19 02:13:58;;;;;;;39.92;5.82;;;;;;;11.29;81.11;95717.25;5049401;28;20138;-65
2023/01/19 02:16:25;;;;;;;40.63;6.75;;;;;;;11.33;80.88;95724.03;5049502;28;20045;-68
2023/01/19 02:18:53;;;;;;;45.10;7.00;;;;;;;11.29;81.06;95719.88;5049314;28;20097;-66
2023/01/19 02:21:27;;;;;;;51.58;7.75;;;;;;;11.21;81.18;95725.53;5049201;28;20049;-66
2023/01/19 02:23:57;;;;;;;47.20;7.93;;;;;;;11.22;81.10;95728.97;5049836;28;20098;-67
2023/01/19 02:26:31;;;;;;;52.55;8.18;;;;;;;11.25;80.74;95723.59;5052650;28;20132;-67
2023/01/19 02:29:00;;;;;;;48.70;5.85;;;;;;;11.21;80.37;95725.53;5052500;28;20466;-65
2023/01/19 02:31:30;;;;;;;35.45;7.00;;;;;;;11.18;80.73;95725.69;5052446;28;20080;-63
2023/01/19 02:33:58;;;;;;;39.38;5.72;;;;;;;11.19;80.69;95714.28;5052894;28;20081;-65
2023/01/19 02:36:30;;;;;;;38.55;6.60;;;;;;;11.25;80.14;95727.06;5052532;28;20482;-65
2023/01/19 02:39:00;;;;;;;49.65;7.43;;;;;;;11.24;79.87;95740.22;5052550;28;20498;-66
2023/01/19 02:41:32;;;;;;;45.85;7.18;;;;;;;11.25;79.81;95731.44;5052442;28;20045;-65
2023/01/19 02:44:01;;;;;;;41.70;5.82;;;;;;;11.24;80.02;95735.84;5052248;28;20041;-68
2023/01/19 02:46:28;;;;;;;36.92;7.70;;;;;;;11.26;79.80;95733.16;5052098;28;20053;-65
2023/01/19 02:48:59;;;;;;;36.65;5.97;;;;;;;11.29;79.71;95740.81;5052256;28;20622;-66
2023/01/19 02:51:27;;;;;;;;;;;;;;;11.33;79.24;95734.50;5052668;28;20057;-65
2023/01/19 02:54:17;;;;;;;47.92;5.38;;;;;;;11.30;79.50;95739.91;5052185;28;19925;-68
2023/01/19 02:57:00;;;;;;;42.72;6.30;;;;;;;11.29;79.28;95735.56;5052262;28;20554;-64
2023/01/19 02:59:40;;;;;;;40.60;6.53;;;;;;;11.26;79.19;95730.53;5051185;28;20095;-66
2023/01/19 03:02:22;;;;;;;65.07;7.85;;;;;;;11.21;79.30;95738.63;5052409;28;20045;-68
2023/01/19 03:04:59;;;;;;;35.25;6.78;;;;;;;11.25;79.05;95745.38;5052237;28;20479;-69
2023/01/19 03:07:35;;;;;;;52.90;7.97;;;;;;;11.24;79.41;95753.31;5052004;28;20128;-67
2023/01/19 03:10:13;;;;;;;47.00;6.75;;;;;;;11.19;79.57;95734.38;5051898;28;20045;-64
2023/01/19 03:12:44;;;;;;;41.85;6.70;;;;;;;11.20;79.66;95741.31;5051793;28;20060;-67
2023/01/19 03:15:18;;;;;;;40.67;6.10;;;;;;;11.26;79.52;95738.38;5051863;28;20081;-64
2023/01/19 03:17:49;;;;;;;48.10;7.45;;;;;;;11.24;79.38;95735.84;5051916;28;20128;-66
2023/01/19 03:20:21;;;;;;;48.35;6.80;;;;;;;11.23;79.55;95744.59;5051813;28;20049;-66
2023/01/19 03:22:52;;;;;;;32.78;6.80;;;;;;;11.17;79.70;95736.25;5051759;28;20056;-63
2023/01/19 03:25:23;;;;;;;39.08;6.45;;;;;;;11.23;79.50;95741.16;5051812;28;20110;-65
2023/01/19 03:27:52;;;;;;;;;;;;;;;11.24;79.41;95737.63;5052302;28;20129;-65
2023/01/19 03:30:24;;;;;;;47.90;6.25;;;;;;;11.18;79.15;95740.56;5051733;28;19921;-65
2023/01/19 03:32:54;;;;;;;40.75;6.28;;;;;;;11.27;78.96;95744.44;5051599;28;20145;-65
2023/01/19 03:35:25;;;;;;;56.78;6.93;;;;;;;11.26;78.83;95738.38;5051099;28;20057;-67
2023/01/19 03:37:56;;;;;;;49.22;6.63;;;;;;;11.27;78.88;95744.44;5051691;28;20056;-64
2023/01/19 03:40:29;;;;;;;40.97;6.15;;;;;;;11.26;78.58;95746.25;5051615;28;20040;-65
2023/01/19 03:42:57;;;;;;;47.67;7.45;;;;;;;11.32;78.47;95734.59;5051388;28;20092;-66
2023/01/19 03:45:24;;;;;;;45.55;7.07;;;;;;;11.35;78.19;95731.81;5051457;28;20049;-68
2023/01/19 03:47:52;;;;;;;51.17;7.88;;;;;;;11.28;78.42;95741.75;5051396;28;20045;-66
2023/01/19 03:50:26;;;;;;;37.30;5.50;;;;;;;11.32;78.34;95750.31;5051538;28;20053;-65
2023/01/19 03:53:06;;;;;;;64.30;7.07;;;;;;;11.28;78.21;95746.13;5051381;28;20056;-67
2023/01/19 03:55:38;;;;;;;43.38;6.30;;;;;;;11.30;78.16;95747.75;5051362;28;20555;-67
2023/01/19 03:58:05;;;;;;;33.78;6.82;;;;;;;11.31;77.81;95744.19;5051379;28;20132;-63
2023/01/19 04:00:33;;;;;;;33.08;6.55;;;;;;;11.27;77.94;95761.00;5051192;28;20056;-66
2023/01/19 04:03:01;;;;;;;55.42;9.07;;;;;;;11.29;77.77;95760.94;5051355;28;20402;-62
2023/01/19 04:05:28;;;;;;;40.20;7.05;;;;;;;11.29;77.53;95760.94;5051011;28;20080;-64
2023/01/19 04:07:55;;;;;;;34.00;6.40;;;;;;;11.31;77.48;95751.19;5051199;28;20076;-66
2023/01/19 04:10:24;;;;;;;44.38;6.30;;;;;;;11.34;77.29;95757.13;5051197;28;20137;-65
2023/01/19 04:12:57;;;;;;;34.05;5.18;;;;;;;11.31;77.57;95761.69;5050854;28;20060;-63
2023/01/19 04:15:24;;;;;;;46.42;7.20;;;;;;;11.25;77.68;95762.84;5051025;28;20456;-65
2023/01/19 04:17:51;;;;;;;45.00;6.72;;;;;;;11.32;77.59;95761.59;5050908;28;20053;-66
2023/01/19 04:20:19;;;;;;;35.47;7.55;;;;;;;11.34;77.49;95761.50;5050935;28;20045;-66
2023/01/19 04:22:45;;;;;;;44.40;7.38;;;;;;;11.37;77.26;95767.44;5050705;28;20055;-64
2023/01/19 04:25:13;;;;;;;44.53;5.95;;;;;;;11.37;77.38;95763.97;5050813;28;20120;-62
2023/01/19 04:27:40;;;;;;;41.33;5.78;;;;;;;11.38;76.98;95771.75;5050783;28;20125;-66
2023/01/19 04:30:10;;;;;;;53.47;8.23;;;;;;;11.35;77.41;95771.91;5050731;28;20041;-64
2023/01/19 04:32:37;;;;;;;47.50;6.25;;;;;;;11.36;77.46;95768.38;5050774;28;20049;-64
2023/01/19 04:35:05;;;;;;;68.82;10.43;;;;;;;11.33;77.47;95771.16;5050716;28;20045;-67
2023/01/19 04:37:32;;;;;;;43.30;6.38;;;;;;;11.32;77.61;95763.38;5050579;28;20055;-63
2023/01/19 04:39:59;;;;;;;48.47;6.32;;;;;;;11.34;77.54;95772.84;5050609;28;20402;-65
2023/01/19 04:42:26;;;;;;;36.80;7.40;;;;;;;11.35;77.45;95771.09;5050670;28;20149;-64
2023/01/19 04:44:53;;;;;;;47.25;7.72;;;;;;;11.38;77.21;95781.41;5050299;28;20067;-65
2023/01/19 04:47:22;;;;;;;46.80;7.40;;;;;;;11.33;77.29;95789.50;5050344;28;20051;-67
2023/01/19 04:49:49;;;;;;;47.40;7.30;;;;;;;11.30;77.67;95775.69;5050498;28;20049;-66
2023/01/19 04:52:16;;;;;;;46.05;9.32;;;;;;;11.33;77.37;95794.72;5050426;28;20064;-67
2023/01/19 04:54:43;;;;;;;52.10;8.13;;;;;;;11.35;77.51;95787.63;5050442;28;20136;-64
2023/01/19 04:57:10;;;;;;;40.45;6.88;;;;;;;11.36;77.65;95784.09;5050695;28;20053;-64
2023/01/19 04:59:37;;;;;;;52.80;8.23;;;;;;;11.41;77.62;95778.59;5050240;28;20044;-66
2023/01/19 05:02:04;;;;;;;40.08;6.50;;;;;;;11.37;77.66;95779.69;5050407;28;20486;-65
2023/01/19 05:04:33;;;;;;;50.92;7.18;;;;;;;11.37;77.52;95788.41;5050130;28;20399;-66
2023/01/19 05:07:00;;;;;;;39.78;7.03;;;;;;;11.40;77.38;95794.38;5050368;28;20498;-66
2023/01/19 05:09:27;;;;;;;50.33;6.88;;;;;;;11.40;77.24;95800.47;5050164;28;20045;-65
2023/01/19 05:11:54;;;;;;;51.00;6.55;;;;;;;11.43;77.18;95791.59;5050119;28;20052;-65
2023/01/19 05:14:21;;;;;;;47.40;6.85;;;;;;;11.46;76.81;95792.28;5050228;28;20106;-65
2023/01/19 05:16:48;;;;;;;41.58;6.72;;;;;;;11.43;76.79;95787.22;5050039;28;20053;-67
2023/01/19 05:19:15;;;;;;;37.33;6.60;;;;;;;11.42;76.58;95795.16;5050349;28;20127;-65
2023/01/19 05:21:44;;;;;;;60.00;8.55;;;;;;;11.45;76.56;95798.47;5050209;28;20127;-65
2023/01/19 05:24:11;;;;;;;55.50;7.80;;;;;;;11.41;76.80;95786.44;5049981;28;20041;-66
2023/01/19 05:26:38;;;;;;;52.78;7.63;;;;;;;11.43;76.76;95791.59;5049920;28;20094;-64
2023/01/19 05:29:05;;;;;;;48.15;7.55;;;;;;;11.45;76.94;95788.00;5049982;28;20475;-64
2023/01/19 05:31:32;;;;;;;49.58;7.32;;;;;;;11.45;77.02;95789.75;5049996;28;20527;-65
2023/01/19 05:34:00;;;;;;;49.80;6.82;;;;;;;11.40;77.22;95799.59;5049898;28;20053;-64
2023/01/19 05:36:27;;;;;;;40.95;6.93;;;;;;;11.41;77.21;95794.28;5049907;28;20121;-66
2023/01/19 05:38:55;;;;;;;45.25;6.63;;;;;;;11.40;77.29;95805.72;5049780;28;20074;-64
2023/01/19 05:41:23;;;;;;;42.13;6.93;;;;;;;11.37;77.51;95811.97;5049693;28;20053;-66
2023/01/19 05:43:50;;;;;;;50.95;7.50;;;;;;;11.33;77.83;95810.44;5049820;28;20413;-64
2023/01/19 05:46:17;;;;;;;46.88;6.30;;;;;;;11.33;77.98;95809.59;5049676;28;20057;-63
2023/01/19 05:48:44;;;;;;;45.83;6.28;;;;;;;11.40;77.54;95812.72;5049697;28;20463;-64
2023/01/19 05:51:11;;;;;;;33.80;6.45;;;;;;;11.43;77.55;95817.78;5049590;28;20482;-65
2023/01/19 05:53:38;;;;;;;37.65;7.10;;;;;;;11.38;77.88;95823.28;5049546;28;20091;-63
2023/01/19 05:56:10;;;;;;;48.13;7.28;;;;;;;11.36;77.98;95839.06;5049726;28;20462;-65
2023/01/19 05:58:38;;;;;;;50.05;6.57;;;;;;;11.36;77.79;95831.22;5049632;28;20053;-66
2023/01/19 06:01:07;;;;;;;47.15;7.03;;;;;;;11.47;77.09;95824.56;5053090;28;20478;-68
2023/01/19 06:03:35;;;;;;;42.38;6.97;;;;;;;11.43;77.30;95836.13;5053145;28;20387;-65
2023/01/19 06:06:02;;;;;;;42.65;6.82;;;;;;;11.43;76.99;95823.88;5052912;28;20055;-66
2023/01/19 06:08:29;;;;;;;47.92;7.00;;;;;;;11.44;77.01;95835.22;5053015;28;20502;-66
2023/01/19 06:10:57;;;;;;;37.55;6.53;;;;;;;11.48;76.93;95834.13;5052924;28;20052;-64
2023/01/19 06:13:25;;;;;;;36.03;6.68;;;;;;;11.56;76.48;95836.34;5052832;28;20053;-66
2023/01/19 06:15:58;;;;;;;41.63;7.13;;;;;;;11.58;76.26;95840.56;5052838;28;20098;-66
2023/01/19 06:18:28;;;;;;;79.60;16.67;;;;;;;11.62;76.30;95841.25;5053213;28;20048;-66
2023/01/19 06:20:58;;;;;;;50.97;7.85;;;;;;;11.71;76.10;95819.78;5052888;28;20456;-67
2023/01/19 06:23:25;;;;;;;41.60;6.93;;;;;;;11.91;75.47;95837.97;5052784;28;20092;-69
2023/01/19 06:25:52;;;;;;;39.65;5.78;;;;;;;12.08;74.42;95839.69;5053043;28;20041;-66
2023/01/19 06:28:20;;;;;;;43.50;7.47;;;;;;;12.33;73.50;95847.03;5052584;28;20448;-64
2023/01/19 06:30:50;;;;;;;39.55;6.68;;;;;;;12.57;72.31;95853.59;5052698;28;20049;-68
2023/01/19 06:33:18;;;;;;;45.67;6.22;;;;;;;12.77;71.23;95855.91;5052456;28;20060;-65
2023/01/19 06:35:46;;;;;;;35.92;6.78;;;;;;;12.91;70.24;95853.44;5052581;28;20106;-65
2023/01/19 06:38:13;;;;;;;38.17;6.55;;;;;;;13.14;69.45;95868.69;5052479;28;20049;-67
2023/01/19 06:40:41;;;;;;;46.38;7.35;;;;;;;13.34;68.53;95871.88;5052525;28;20053;-66
2023/01/19 06:43:09;;;;;;;45.88;6.60;;;;;;;13.49;67.55;95871.91;5052489;28;20052;-64
2023/01/19 06:45:38;;;;;;;49.58;6.70;;;;;;;13.68;66.55;95878.69;5052238;28;20123;-67
2023/01/19 06:48:07;;;;;;;33.00;5.43;;;;;;;13.97;65.77;95881.34;5052300;28;20483;-66
2023/01/19 06:50:35;;;;;;;31.40;6.22;;;;;;;14.12;65.27;95882.16;5052413;28;20080;-65
2023/01/19 06:53:02;;;;;;;33.53;6.22;;;;;;;14.32;64.77;95880.03;5052419;28;20061;-65
2023/01/19 06:55:29;;;;;;;42.83;6.93;;;;;;;14.55;63.51;95890.88;5052238;28;20056;-64
2023/01/19 06:57:57;;;;;;;36.33;5.70;;;;;;;14.71;62.75;95888.09;5052176;28;20059;-68
2023/01/19 07:00:25;;;;;;;35.95;6.30;;;;;;;14.96;62.04;95883.91;5052128;28;20045;-69
2023/01/19 07:02:53;;;;;;;48.17;7.82;;;;;;;15.03;61.39;95885.16;5052047;28;20045;-64
2023/01/19 07:05:23;;;;;;;40.00;7.03;;;;;;;15.06;61.55;95895.50;5052168;28;20049;-66
2023/01/19 07:07:54;;;;;;;32.20;6.32;;;;;;;15.28;60.44;95912.50;5052168;28;20113;-65
2023/01/19 07:10:23;;;;;;;43.78;7.25;;;;;;;15.48;59.69;95898.00;5050935;28;20049;-64
2023/01/19 07:12:50;;;;;;;39.10;6.40;;;;;;;15.57;58.71;95903.56;5051495;28;20503;-65
2023/01/19 07:15:21;;;;;;;52.85;9.02;;;;;;;15.82;58.34;95908.00;5051857;28;20101;-67
2023/01/19 07:17:48;;;;;;;38.13;6.25;;;;;;;15.99;57.85;95906.88;5051888;28;20113;-65
2023/01/19 07:20:16;;;;;;;38.38;6.75;;;;;;;16.32;56.34;95909.00;5051985;28;20049;-66
2023/01/19 07:22:45;;;;;;;53.95;7.82;;;;;;;16.65;55.54;95908.34;5051790;28;20483;-62
2023/01/19 07:25:13;;;;;;;39.47;6.40;;;;;;;16.67;55.18;95906.47;5051869;28;20051;-65
2023/01/19 07:27:40;;;;;;;35.67;6.07;;;;;;;16.80;54.85;95913.50;5051735;28;20049;-68
2023/01/19 07:30:09;;;;;;;42.78;7.32;;;;;;;17.16;54.55;95911.75;5051837;28;20052;-67
2023/01/19 07:32:36;;;;;;;39.22;6.47;;;;;;;17.35;52.89;95907.72;5051699;28;20045;-65
2023/01/19 07:35:04;;;;;;;42.92;6.60;;;;;;;17.38;52.93;95912.78;5051794;28;20123;-66
2023/01/19 07:37:31;;;;;;;48.28;9.32;;;;;;;17.55;52.15;95924.69;5051654;28;20073;-66
2023/01/19 07:40:00;;;;;;;41.75;7.75;;;;;;;17.53;52.00;95918.72;5051784;28;20088;-65
2023/01/19 07:42:27;;;;;;;44.35;7.50;;;;;;;17.77;51.56;95922.22;5051454;28;20053;-66
2023/01/19 07:44:55;;;;;;;40.92;7.78;;;;;;;17.82;51.72;95912.13;5051231;28;20132;-66
2023/01/19 07:47:22;;;;;;;47.42;7.38;;;;;;;18.02;50.57;95909.72;5051448;28;20049;-68
2023/01/19 07:49:49;;;;;;;42.40;6.68;;;;;;;17.94;51.07;95919.09;5051412;28;20072;-66
2023/01/19 07:52:17;;;;;;;47.85;6.90;;;;;;;18.12;50.66;95928.41;5051314;28;20049;-66
2023/01/19 07:54:44;;;;;;;41.42;6.68;;;;;;;18.28;50.00;95909.50;5051312;28;20127;-65
2023/01/19 07:57:15;;;;;;;40.75;7.03;;;;;;;18.28;50.45;95909.50;5051344;28;20053;-64
2023/01/19 07:59:42;;;;;;;47.63;6.18;;;;;;;18.40;49.34;95927.06;5051303;28;20406;-63
2023/01/19 08:02:13;;;;;;;38.75;6.53;;;;;;;18.30;49.71;95915.50;5051153;28;20048;-64
2023/01/19 08:04:42;;;;;;;50.42;7.03;;;;;;;18.39;49.64;95919.25;5051421;28;20056;-67
2023/01/19 08:07:09;;;;;;;36.42;5.57;;;;;;;18.40;49.53;95923.56;5051104;28;20105;-65
2023/01/19 08:09:37;;;;;;;42.70;6.43;;;;;;;18.41;49.32;95926.09;5051123;28;20449;-65
2023/01/19 08:12:08;;;;;;;41.97;5.65;;;;;;;18.54;49.06;95941.00;5051038;28;20051;-66
2023/01/19 08:14:37;;;;;;;48.05;6.43;;;;;;;18.40;49.21;95929.72;5050963;28;20049;-67
2023/01/19 08:17:07;;;;;;;41.20;6.13;;;;;;;18.54;49.21;95933.03;5050916;28;20051;-64
2023/01/19 08:19:35;;;;;;;41.45;7.22;;;;;;;18.96;48.10;95936.81;5050872;28;20049;-64
2023/01/19 08:22:02;;;;;;;40.45;6.05;;;;;;;19.01;47.26;95938.13;5050444;28;20084;-68
2023/01/19 08:24:30;;;;;;;41.17;7.60;;;;;;;18.75;48.43;95934.97;5050842;28;20045;-65
2023/01/19 08:27:02;;;;;;;42.30;5.75;;;;;;;18.78;48.50;95946.13;5050776;28;20045;-63
2023/01/19 08:29:30;;;;;;;39.05;6.60;;;;;;;18.59;48.73;95936.19;5050786;28;20105;-66
2023/01/19 08:32:01;;;;;;;38.40;5.93;;;;;;;18.74;48.95;95939.41;5050789;28;20048;-64
2023/01/19 08:34:29;;;;;;;28.42;6.07;;;;;;;18.57;49.23;95940.75;5050680;28;20504;-64
2023/01/19 08:36:57;;;;;;;32.75;5.80;;;;;;;18.39;49.12;95937.78;5050679;28;20049;-64
2023/01/19 08:39:24;;;;;;;38.03;5.95;;;;;;;18.11;49.92;95932.00;5050626;28;20049;-68
2023/01/19 08:41:52;;;;;;;50.05;6.07;;;;;;;18.12;50.29;95931.06;5050784;28;20445;-62
2023/01/19 08:44:21;;;;;;;34.80;6.38;;;;;;;18.02;50.92;95933.53;5050592;28;20137;-64
2023/01/19 08:46:49;;;;;;;49.55;6.30;;;;;;;17.97;50.77;95933.06;5050393;28;20064;-66
2023/01/19 08:49:18;;;;;;;40.75;6.28;;;;;;;18.03;50.36;95922.84;5050652;28;20064;-63
2023/01/19 08:51:48;;;;;;;34.55;6.00;;;;;;;18.01;50.54;95926.56;5050541;28;20133;-64
2023/01/19 08:54:16;;;;;;;51.08;6.72;;;;;;;17.76;51.01;95933.78;5050673;28;20057;-65
2023/01/19 08:56:43;;;;;;;31.02;6.07;;;;;;;17.52;51.04;95940.78;5050443;28;20049;-64
2023/01/19 08:59:10;;;;;;;38.35;6.32;;;;;;;17.48;52.13;95930.56;5050328;28;20512;-63
2023/01/19 09:01:38;;;;;;;41.13;6.82;;;;;;;17.41;52.75;95927.56;5050464;28;20491;-68
2023/01/19 09:04:06;;;;;;;39.53;6.30;;;;;;;17.31;52.48;95943.28;5050230;28;20052;-63
2023/01/19 09:06:35;;;;;;;51.20;5.25;;;;;;;17.12;52.61;95944.63;5050138;28;20045;-67
2023/01/19 09:09:02;;;;;;;36.60;5.57;;;;;;;16.95;53.37;95926.53;5050215;28;20437;-62
2023/01/19 09:11:30;;;;;;;45.55;5.32;;;;;;;16.98;53.32;95947.44;5050197;28;20049;-65
2023/01/19 09:13:57;;;;;;;32.95;6.03;;;;;;;16.71;53.61;95935.28;5049929;28;20081;-66
2023/01/19 09:16:25;;;;;;;35.08;5.35;;;;;;;16.59;53.74;95948.44;5050131;28;20555;-66
2023/01/19 09:18:53;;;;;;;42.75;6.43;;;;;;;16.62;55.23;95948.19;5050139;28;20045;-65
2023/01/19 09:21:20;;;;;;;37.10;8.75;;;;;;;16.68;55.26;95933.72;5050062;28;20048;-67
2023/01/19 09:23:48;;;;;;;35.70;6.07;;;;;;;16.82;54.48;95945.91;5049931;28;20045;-65
2023/01/19 09:26:16;;;;;;;29.13;4.72;;;;;;;16.91;53.84;95945.22;5050031;28;20049;-64
2023/01/19 09:28:43;;;;;;;30.70;5.35;;;;;;;17.01;53.58;95941.91;5050000;28;20045;-65
2023/01/19 09:31:10;;;;;;;39.38;6.20;;;;;;;16.90;53.51;95940.91;5049965;28;20064;-67
2023/01/19 09:33:37;;;;;;;33.30;6.82;;;;;;;16.92;53.75;95932.88;5049827;28;20056;-63
2023/01/19 09:36:05;;;;;;;34.60;5.90;;;;;;;16.92;53.40;95933.69;5053485;28;20535;-68
2023/01/19 09:38:32;;;;;;;30.08;4.80;;;;;;;16.97;54.83;95920.16;5053758;28;20080;-66
2023/01/19 11:04:38;;;;;;;24.15;4.30;;;;;;;16.62;53.83;95795.06;5131674;27;20382;-64
2023/01/19 11:07:16;;;;;;;30.17;4.55;;;;;;;16.74;53.48;95792.47;5131554;28;20100;-66
2023/01/19 11:09:43;;;;;;;20.27;3.90;;;;;;;16.72;53.45;95786.47;5131320;27;20430;-66
2023/01/19 11:12:17;;;;;;;16.85;3.85;;;;;;;16.52;53.25;95789.63;5131168;28;20044;-68
2023/01/19 11:14:45;;;;;;;24.52;3.95;;;;;;;16.42;53.81;95786.84;5131190;28;20052;-66
2023/01/19 11:17:21;;;;;;;23.98;4.15;;;;;;;16.32;54.06;95777.91;5131167;28;20059;-67
2023/01/19 11:20:00;;;;;;;21.33;4.45;;;;;;;16.31;53.76;95781.50;5131104;28;20057;-65
2023/01/19 11:22:31;;;;;;;20.23;4.38;;;;;;;16.32;53.22;95795.53;5131164;27;20051;-65
2023/01/19 11:25:00;;;;;;;24.63;3.92;;;;;;;16.25;53.55;95776.66;5130970;27;20048;-67
2023/01/19 11:27:29;;;;;;;20.70;4.15;;;;;;;16.28;53.58;95787.00;5130864;28;20079;-62
2023/01/19 11:30:06;;;;;;;25.67;4.63;;;;;;;16.28;53.13;95790.47;5130916;27;20104;-64
2023/01/19 11:32:35;;;;;;;28.65;3.97;;;;;;;16.14;53.32;95790.66;5130693;28;20100;-67
2023/01/19 11:35:32;;;;;;;22.77;4.38;;;;;;;16.12;53.61;95785.50;5130872;28;20389;-68
2023/01/19 11:38:17;;;;;;;24.88;4.18;;;;;;;16.16;52.65;95794.84;5130807;27;20047;-68
2023/01/19 11:40:54;;;;;;;21.52;3.90;;;;;;;16.06;52.43;95780.66;5130779;28;20047;-67
2023/01/19 11:43:22;;;;;;;29.10;4.88;;;;;;;16.07;53.10;95787.59;5130561;27;20054;-63
2023/01/19 11:45:49;;;;;;;27.50;4.50;;;;;;;16.10;53.92;95786.56;5130672;27;20537;-65
2023/01/19 11:48:24;;;;;;;20.70;3.78;;;;;;;16.16;52.87;95794.84;5130679;28;20052;-63
2023/01/19 11:50:54;;;;;;;28.13;4.40;;;;;;;16.16;52.51;95779.03;5130524;28;20049;-65
2023/01/19 11:53:24;;;;;;;22.42;3.55;;;;;;;16.20;52.66;95794.63;5130481;27;20051;-65
2023/01/19 11:55:56;;;;;;;27.40;3.88;;;;;;;16.12;53.23;95782.00;5130346;28;20039;-67
2023/01/19 11:58:25;;;;;;;27.02;4.97;;;;;;;16.21;53.27;95794.53;5130266;28;20492;-64
2023/01/19 12:00:56;;;;;;;19.60;3.63;;;;;;;16.24;52.78;95796.09;5130324;27;20583;-65
2023/01/19 12:03:29;;;;;;;18.52;5.35;;;;;;;16.20;52.39;95797.28;5129140;28;20043;-67
2023/01/19 12:06:04;;;;;;;25.70;4.88;;;;;;;16.10;52.00;95776.84;5116262;28;20047;-65
2023/01/19 12:08:35;;;;;;;23.23;4.05;;;;;;;16.02;52.12;95803.75;5116395;28;20048;-66
2023/01/19 12:11:05;;;;;;;22.85;4.13;;;;;;;15.84;52.84;95791.88;5115735;27;20481;-66
2023/01/19 12:13:36;;;;;;;15.88;4.03;;;;;;;15.84;52.26;95797.16;5116378;28;20481;-67
2023/01/19 12:16:08;;;;;;;18.00;3.75;;;;;;;15.90;52.01;95779.06;5116371;28;20071;-66
2023/01/19 12:18:39;;;;;;;22.10;3.40;;;;;;;16.01;51.57;95780.97;5116433;28;20097;-66
2023/01/19 12:21:07;;;;;;;;;;;;;;;16.07;52.23;95773.59;5116674;28;20402;-65
2023/01/19 12:23:56;;;;;;;14.63;3.67;;;;;;;16.11;51.35;95801.44;5116315;28;19926;-68
2023/01/19 12:26:31;;;;;;;21.67;3.95;;;;;;;15.93;52.65;95772.75;5116095;28;20043;-64
2023/01/19 12:29:03;;;;;;;21.67;3.20;;;;;;;15.87;52.98;95773.19;5116082;28;20489;-65
2023/01/19 12:31:31;;;;;;;20.23;3.75;;;;;;;15.80;52.61;95772.78;5116033;28;20048;-67
2023/01/19 12:34:31;;;;;;;22.65;4.00;;;;;;;15.76;52.29;95785.34;5115798;28;20047;-68
2023/01/19 12:37:03;;;;;;;16.95;3.13;;;;;;;15.79;51.77;95760.56;5116022;28;20048;-64
2023/01/19 12:39:34;;;;;;;19.90;3.20;;;;;;;15.69;51.96;95799.06;5115824;28;20102;-68
2023/01/19 12:42:14;;;;;;;20.20;3.95;;;;;;;15.71;51.72;95787.47;5115877;28;20130;-65
2023/01/19 12:44:42;;;;;;;17.48;3.75;;;;;;;15.68;51.71;95778.94;5115774;28;20462;-67
2023/01/19 12:47:23;;;;;;;19.27;3.13;;;;;;;15.71;51.68;95797.19;5115868;28;20044;-65
2023/01/19 12:49:57;;;;;;;14.23;3.50;;;;;;;15.64;52.39;95810.78;5115797;28;20122;-65
2023/01/19 12:52:32;;;;;;;17.63;3.08;;;;;;;15.63;52.20;95792.44;5115485;28;20044;-63
2023/01/19 12:55:17;;;;;;;13.45;2.78;;;;;;;15.59;52.02;95790.97;5115538;28;20044;-65
2023/01/19 12:57:53;;;;;;;14.73;2.75;;;;;;;15.56;51.97;95802.56;5115479;28;20131;-68
2023/01/19 13:00:33;;;;;;;21.70;3.55;;;;;;;15.57;52.17;95792.88;5115539;28;20047;-64
2023/01/19 13:03:01;;;;;;;13.75;3.15;;;;;;;15.52;52.10;95799.31;5115128;28;20130;-61
2023/01/19 13:05:51;;;;;;;24.80;4.70;;;;;;;15.52;52.19;95801.94;5115321;28;20085;-62
2023/01/19 13:08:28;;;;;;;16.58;3.78;;;;;;;15.48;52.49;95778.56;5115337;28;20126;-63